createdAt,value
2023-03-11T00:02:59.132Z,12.03
2023-03-11T00:06:23.012Z,11.84
2023-03-11T00:09:49.521Z,11.73
2023-03-11T00:13:13.690Z,11.75
2023-03-11T00:16:35.843Z,11.83
2023-03-11T00:20:02.204Z,11.76
2023-03-11T00:23:29.488Z,11.66
2023-03-11T00:26:51.035Z,11.75
2023-03-11T00:30:14.143Z,11.79
2023-03-11T00:33:35.726Z,11.91
2023-03-11T00:36:59.633Z,11.61
2023-03-11T00:40:27.983Z,11.56
2023-03-11T00:43:49.642Z,11.58
2023-03-11T00:47:11.915Z,11.65
2023-03-11T00:50:37.181Z,11.80
2023-03-11T00:54:00.852Z,11.80
2023-03-11T00:57:22.682Z,11.76
2023-03-11T01:00:44.403Z,11.80
2023-03-11T01:04:06.852Z,11.52
2023-03-11T01:07:31.278Z,11.69
2023-03-11T01:10:53.728Z,11.67
2023-03-11T01:14:15.515Z,11.51
2023-03-11T01:17:37.082Z,11.54
2023-03-11T01:20:58.636Z,11.32
2023-03-11T01:24:20.562Z,11.39
2023-03-11T01:27:44.876Z,11.54
2023-03-11T01:31:06.607Z,11.38
2023-03-11T01:34:28.174Z,11.31
2023-03-11T01:37:49.795Z,11.19
2023-03-11T01:41:12.899Z,11.18
2023-03-11T01:44:34.498Z,11.15
2023-03-11T01:47:56.101Z,10.81
2023-03-11T01:51:26.517Z,10.97
2023-03-11T01:54:51.924Z,11.00
2023-03-11T01:58:20.169Z,11.04
2023-03-11T02:02:17.328Z,11.19
2023-03-11T02:05:43.098Z,11.28
2023-03-11T02:09:04.759Z,11.29
2023-03-11T02:12:31.291Z,11.12
2023-03-11T02:15:55.007Z,11.15
2023-03-11T02:19:30.608Z,11.18
2023-03-11T02:22:57.106Z,11.21
2023-03-11T02:26:54.958Z,10.81
2023-03-11T02:30:17.746Z,10.79
2023-03-11T02:33:39.608Z,10.98
2023-03-11T02:37:08.852Z,11.00
2023-03-11T02:40:59.908Z,11.14
2023-03-11T02:44:24.549Z,10.88
2023-03-11T02:47:49.160Z,10.87
2023-03-11T02:51:10.755Z,10.94
2023-03-11T02:54:32.405Z,10.94
2023-03-11T02:57:53.950Z,10.80
2023-03-11T03:01:15.951Z,10.69
2023-03-11T03:04:40.097Z,10.69
2023-03-11T03:08:03.415Z,10.73
2023-03-11T03:11:30.142Z,10.70
2023-03-11T03:14:54.237Z,10.79
2023-03-11T03:18:15.955Z,10.67
2023-03-11T03:21:40.781Z,10.55
2023-03-11T03:25:02.427Z,10.66
2023-03-11T03:28:26.880Z,10.57
2023-03-11T03:31:51.060Z,10.46
2023-03-11T03:35:12.967Z,10.52
2023-03-11T03:38:36.788Z,10.70
2023-03-11T03:41:58.443Z,10.67
2023-03-11T03:45:22.326Z,10.61
2023-03-11T03:48:43.948Z,10.50
2023-03-11T03:52:08.904Z,10.43
2023-03-11T03:55:35.776Z,10.53
2023-03-11T03:58:57.323Z,10.52
2023-03-11T04:02:21.054Z,10.31
2023-03-11T04:05:44.757Z,10.32
2023-03-11T04:09:06.943Z,10.08
2023-03-11T04:12:31.070Z,10.04
2023-03-11T04:15:52.655Z,9.97
2023-03-11T04:19:14.243Z,10.12
2023-03-11T04:22:39.145Z,10.04
2023-03-11T04:26:03.727Z,10.04
2023-03-11T04:29:25.628Z,10.06
2023-03-11T04:32:47.255Z,9.69
2023-03-11T04:36:10.069Z,9.60
2023-03-11T04:39:31.807Z,9.74
2023-03-11T04:42:54.110Z,9.75
2023-03-11T04:46:17.990Z,9.47
2023-03-11T04:49:39.633Z,9.51
2023-03-11T04:53:03.764Z,9.25
2023-03-11T04:56:25.380Z,9.14
2023-03-11T04:59:47.482Z,9.08
2023-03-11T05:03:09.316Z,9.11
2023-03-11T05:06:33.283Z,8.95
2023-03-11T05:09:57.765Z,8.84
2023-03-11T05:13:20.388Z,8.99
2023-03-11T05:16:41.988Z,9.02
2023-03-11T05:20:06.671Z,8.54
2023-03-11T05:23:30.559Z,8.61
2023-03-11T05:26:54.703Z,8.54
2023-03-11T05:30:17.261Z,8.57
2023-03-11T05:33:39.205Z,8.50
2023-03-11T05:37:03.183Z,8.64
2023-03-11T05:40:27.248Z,8.65
2023-03-11T05:43:51.120Z,8.54
2023-03-11T05:47:12.733Z,8.34
2023-03-11T05:50:34.305Z,8.20
2023-03-11T05:53:56.218Z,8.14
2023-03-11T05:57:19.147Z,8.22
2023-03-11T06:00:40.782Z,8.29
2023-03-11T06:04:02.965Z,8.05
2023-03-11T06:07:24.591Z,8.14
2023-03-11T06:10:48.873Z,8.17
2023-03-11T06:14:14.714Z,8.33
2023-03-11T06:17:36.569Z,8.13
2023-03-11T06:21:02.358Z,8.22
2023-03-11T06:24:26.229Z,8.09
2023-03-11T06:27:52.457Z,7.68
2023-03-11T06:31:24.590Z,7.72
2023-03-11T06:34:50.546Z,7.85
2023-03-11T06:38:12.440Z,7.95
2023-03-11T06:41:34.937Z,8.23
2023-03-11T06:44:56.653Z,7.86
2023-03-11T06:48:18.328Z,8.09
2023-03-11T06:51:40.105Z,7.98
2023-03-11T06:55:01.830Z,8.02
2023-03-11T06:58:31.128Z,7.78
2023-03-11T07:01:57.518Z,7.82
2023-03-11T07:05:21.564Z,8.30
2023-03-11T07:08:43.417Z,8.23
2023-03-11T07:12:08.341Z,8.82
2023-03-11T07:15:32.399Z,8.54
2023-03-11T07:19:00.945Z,8.25
2023-03-11T07:22:22.521Z,8.43
2023-03-11T07:25:49.975Z,8.68
2023-03-11T07:29:11.560Z,8.67
2023-03-11T07:32:33.664Z,8.30
2023-03-11T07:35:55.291Z,8.01
2023-03-11T07:39:23.975Z,8.14
2023-03-11T07:42:47.875Z,8.37
2023-03-11T07:46:22.805Z,8.75
2023-03-11T07:49:48.894Z,8.57
2023-03-11T07:53:10.503Z,8.93
2023-03-11T07:56:33.903Z,8.85
2023-03-11T07:59:55.483Z,8.60
2023-03-11T08:03:17.199Z,9.12
2023-03-11T08:06:39.038Z,9.11
2023-03-11T08:10:00.605Z,8.20
2023-03-11T08:13:24.506Z,8.40
2023-03-11T08:16:48.575Z,8.32
2023-03-11T08:20:11.187Z,8.60
2023-03-11T08:23:33.074Z,9.14
2023-03-11T08:26:57.229Z,8.97
2023-03-11T08:30:18.968Z,9.48
2023-03-11T08:33:42.239Z,9.78
2023-03-11T08:37:03.849Z,9.47
2023-03-11T08:40:27.618Z,9.25
2023-03-11T08:43:49.674Z,8.91
2023-03-11T08:47:11.613Z,9.33
2023-03-11T08:50:38.740Z,9.58
2023-03-11T08:54:09.227Z,9.95
2023-03-11T08:57:33.880Z,10.69
2023-03-11T09:00:58.120Z,10.63
2023-03-11T09:04:19.678Z,10.33
2023-03-11T09:07:44.603Z,9.90
2023-03-11T09:11:06.226Z,10.71
2023-03-11T09:14:28.480Z,10.42
2023-03-11T09:17:50.069Z,9.85
2023-03-11T09:21:14.246Z,10.50
2023-03-11T09:24:36.122Z,11.06
2023-03-11T09:28:00.212Z,10.80
2023-03-11T09:31:24.489Z,10.77
2023-03-11T09:34:46.392Z,10.41
2023-03-11T09:38:08.022Z,9.04
2023-03-11T09:41:51.522Z,8.92
2023-03-11T09:45:31.546Z,8.34
2023-03-11T09:49:09.717Z,8.64
2023-03-11T09:52:38.189Z,8.92
2023-03-11T09:56:00.913Z,8.79
2023-03-11T09:59:32.578Z,8.46
2023-03-11T10:02:58.276Z,8.23
2023-03-11T10:06:28.618Z,8.60
2023-03-11T10:09:56.966Z,8.32
2023-03-11T10:13:27.082Z,8.01
2023-03-11T10:17:17.167Z,8.09
2023-03-11T10:20:41.641Z,8.17
2023-03-11T10:24:15.026Z,7.95
2023-03-11T10:27:57.753Z,7.86
2023-03-11T10:31:35.049Z,7.77
2023-03-11T10:34:59.645Z,7.91
2023-03-11T10:38:27.519Z,7.93
2023-03-11T10:42:07.533Z,7.77
2023-03-11T10:45:41.431Z,8.60
2023-03-11T10:49:03.266Z,9.42
2023-03-11T10:52:24.996Z,9.97
2023-03-11T10:55:54.901Z,10.67
2023-03-11T10:59:26.985Z,10.67
2023-03-11T11:03:00.016Z,10.61
2023-03-11T11:06:32.954Z,10.70
2023-03-11T11:10:16.668Z,11.24
2023-03-11T11:13:38.277Z,11.04
2023-03-11T11:16:59.948Z,10.74
2023-03-11T11:20:24.771Z,10.97
2023-03-11T11:24:04.996Z,10.84
2023-03-11T11:27:28.741Z,11.49
2023-03-11T11:31:01.785Z,10.85
2023-03-11T11:34:32.186Z,10.93
2023-03-11T11:38:00.233Z,11.25
2023-03-11T11:41:27.816Z,11.32
2023-03-11T11:45:05.568Z,11.56
2023-03-11T11:48:35.460Z,11.03
2023-03-11T11:52:12.447Z,10.61
2023-03-11T11:55:44.124Z,10.53
2023-03-11T11:59:15.594Z,10.39
2023-03-11T12:02:51.719Z,9.91
2023-03-11T12:06:40.712Z,9.67
2023-03-11T12:10:22.204Z,10.01
2023-03-11T12:13:51.844Z,10.94
2023-03-11T12:17:14.704Z,11.39
2023-03-11T12:20:46.528Z,12.24
2023-03-11T12:24:33.263Z,12.31
2023-03-11T12:28:09.161Z,12.55
2023-03-11T12:31:39.496Z,11.82
2023-03-11T12:35:26.349Z,11.45
2023-03-11T12:38:49.076Z,10.56
2023-03-11T12:42:10.793Z,10.73
2023-03-11T12:45:51.417Z,11.39
2023-03-11T12:49:14.949Z,11.55
2023-03-11T12:52:53.906Z,11.08
2023-03-11T12:56:28.640Z,11.21
2023-03-11T13:00:02.322Z,11.06
2023-03-11T13:03:55.963Z,9.98
2023-03-11T13:07:23.373Z,10.06
2023-03-11T13:10:51.966Z,9.46
2023-03-11T13:14:35.181Z,9.06
2023-03-11T13:18:25.510Z,8.56
2023-03-11T13:21:47.160Z,8.82
2023-03-11T13:25:38.751Z,9.05
2023-03-11T13:29:24.598Z,9.35
2023-03-11T13:33:15.948Z,9.51
2023-03-11T13:36:52.085Z,9.46
2023-03-11T13:40:36.079Z,9.83
2023-03-11T13:44:09.524Z,9.97
2023-03-11T13:47:36.790Z,9.63
2023-03-11T13:51:13.549Z,9.15
2023-03-11T13:54:50.996Z,8.37
2023-03-11T13:58:33.013Z,8.29
2023-03-11T14:01:56.075Z,8.19
2023-03-11T14:05:31.855Z,8.03
2023-03-11T14:09:00.830Z,8.17
2023-03-11T14:12:24.838Z,8.68
2023-03-11T14:15:53.587Z,9.26
2023-03-11T14:19:18.544Z,8.99
2023-03-11T14:22:40.530Z,8.67
2023-03-11T14:26:34.969Z,9.30
2023-03-11T14:29:56.680Z,8.71
2023-03-11T14:33:22.892Z,8.23
2023-03-11T14:36:54.167Z,8.50
2023-03-11T14:40:39.599Z,8.98
2023-03-11T14:44:03.928Z,8.93
2023-03-11T14:47:47.048Z,9.08
2023-03-11T14:51:17.142Z,8.57
2023-03-11T14:54:39.579Z,8.17
2023-03-11T14:58:05.331Z,7.77
2023-03-11T15:01:31.250Z,7.68
2023-03-11T15:04:54.631Z,7.98
2023-03-11T15:08:19.815Z,7.86
2023-03-11T15:11:48.927Z,7.88
2023-03-11T15:15:23.813Z,7.89
2023-03-11T15:18:45.355Z,8.43
2023-03-11T15:22:24.833Z,8.67
2023-03-11T15:25:50.095Z,9.53
2023-03-11T15:29:16.889Z,9.64
2023-03-11T15:32:43.675Z,9.93
2023-03-11T15:36:45.639Z,9.18
2023-03-11T15:40:20.008Z,8.43
2023-03-11T15:43:49.202Z,8.57
2023-03-11T15:47:16.791Z,8.57
2023-03-11T15:50:53.699Z,8.56
2023-03-11T15:54:16.092Z,8.71
2023-03-11T15:57:40.952Z,8.25
2023-03-11T16:01:04.907Z,8.10
2023-03-11T16:04:31.160Z,8.06
2023-03-11T16:07:55.105Z,7.99
2023-03-11T16:11:18.845Z,7.54
2023-03-11T16:14:42.640Z,7.79
2023-03-11T16:18:07.527Z,8.07
2023-03-11T16:21:34.867Z,8.43
2023-03-11T16:24:56.657Z,8.64
2023-03-11T16:28:18.278Z,8.33
2023-03-11T16:31:42.247Z,7.53
2023-03-11T16:35:04.564Z,7.99
2023-03-11T16:38:26.301Z,7.93
2023-03-11T16:41:47.872Z,8.39
2023-03-11T16:45:13.041Z,8.51
2023-03-11T16:48:37.155Z,8.91
2023-03-11T16:51:59.037Z,8.81
2023-03-11T16:55:20.639Z,9.25
2023-03-11T16:58:42.507Z,9.18
2023-03-11T17:02:04.112Z,8.30
2023-03-11T17:05:28.180Z,8.03
2023-03-11T17:08:50.170Z,8.23
2023-03-11T17:12:18.141Z,8.10
2023-03-11T17:15:42.316Z,7.93
2023-03-11T17:19:04.039Z,7.95
2023-03-11T17:22:28.316Z,7.06
2023-03-11T17:25:49.991Z,7.47
2023-03-11T17:29:11.544Z,7.40
2023-03-11T17:32:33.752Z,7.34
2023-03-11T17:36:06.012Z,6.68
2023-03-11T17:39:29.837Z,6.98
2023-03-11T17:42:51.458Z,7.16
2023-03-11T17:46:15.885Z,7.74
2023-03-11T17:49:37.555Z,7.43
2023-03-11T17:53:01.657Z,8.43
2023-03-11T17:56:26.257Z,7.95
2023-03-11T17:59:51.204Z,6.55
2023-03-11T18:03:15.190Z,6.77
2023-03-11T18:06:36.970Z,6.86
2023-03-11T18:09:58.518Z,6.92
2023-03-11T18:13:24.577Z,6.75
2023-03-11T18:16:46.177Z,6.77
2023-03-11T18:20:10.885Z,6.93
2023-03-11T18:23:33.236Z,6.38
2023-03-11T18:27:02.067Z,6.13
2023-03-11T18:30:23.601Z,6.02
2023-03-11T18:33:58.849Z,6.30
2023-03-11T18:37:23.414Z,6.50
2023-03-11T18:40:47.729Z,6.07
2023-03-11T18:44:12.790Z,6.36
2023-03-11T18:47:37.603Z,6.02
2023-03-11T18:50:59.400Z,5.99
2023-03-11T18:54:21.342Z,5.96
2023-03-11T18:57:45.980Z,5.76
2023-03-11T19:01:15.978Z,6.09
2023-03-11T19:04:37.681Z,6.00
2023-03-11T19:07:59.271Z,6.20
2023-03-11T19:11:23.365Z,5.96
2023-03-11T19:14:44.984Z,5.85
2023-03-11T19:18:07.614Z,6.06
2023-03-11T19:21:32.042Z,6.07
2023-03-11T19:24:54.214Z,6.03
2023-03-11T19:28:18.573Z,5.93
2023-03-11T19:31:43.494Z,5.37
2023-03-11T19:35:06.340Z,5.69
2023-03-11T19:38:28.953Z,5.85
2023-03-11T19:41:50.825Z,5.66
2023-03-11T19:45:12.473Z,5.78
2023-03-11T19:48:38.831Z,5.79
2023-03-11T19:52:00.483Z,5.98
2023-03-11T19:55:24.301Z,6.03
2023-03-11T19:58:46.010Z,5.83
2023-03-11T20:02:11.586Z,5.10
2023-03-11T20:05:35.921Z,5.31
2023-03-11T20:08:57.497Z,5.10
2023-03-11T20:12:19.045Z,6.03
2023-03-11T20:15:40.981Z,6.34
2023-03-11T20:19:07.095Z,6.52
2023-03-11T20:22:30.968Z,6.93
2023-03-11T20:25:54.738Z,6.78
2023-03-11T20:29:18.831Z,6.75
2023-03-11T20:32:40.505Z,5.98
2023-03-11T20:36:12.465Z,6.07
2023-03-11T20:39:34.039Z,5.66
2023-03-11T20:42:58.197Z,5.61
2023-03-11T20:46:22.861Z,5.79
2023-03-11T20:49:44.631Z,5.58
2023-03-11T20:53:06.440Z,5.69
2023-03-11T20:56:30.304Z,5.92
2023-03-11T20:59:54.478Z,6.48
2023-03-11T21:03:21.295Z,5.96
2023-03-11T21:06:42.982Z,6.33
2023-03-11T21:10:06.934Z,6.17
2023-03-11T21:13:32.550Z,5.98
2023-03-11T21:16:54.270Z,6.06
2023-03-11T21:20:18.345Z,5.65
2023-03-11T21:23:45.193Z,5.26
2023-03-11T21:27:09.291Z,5.58
2023-03-11T21:30:30.854Z,5.71
2023-03-11T21:33:54.856Z,5.47
2023-03-11T21:37:16.905Z,5.63
2023-03-11T21:40:38.644Z,5.51
2023-03-11T21:44:02.840Z,5.30
2023-03-11T21:47:24.434Z,5.31
2023-03-11T21:50:48.715Z,5.17
2023-03-11T21:54:12.498Z,6.02
2023-03-11T21:57:36.795Z,6.10
2023-03-11T22:01:01.767Z,6.38
2023-03-11T22:04:23.827Z,6.40
2023-03-11T22:07:45.459Z,6.42
2023-03-11T22:11:17.702Z,6.63
2023-03-11T22:14:39.538Z,6.65
2023-03-11T22:18:03.644Z,6.44
2023-03-11T22:21:25.274Z,5.76
2023-03-11T22:24:49.191Z,4.85
2023-03-11T22:28:12.992Z,4.85
2023-03-11T22:31:34.765Z,5.20
2023-03-11T22:34:58.999Z,4.79
2023-03-11T22:38:21.257Z,4.87
2023-03-11T22:41:45.571Z,4.79
2023-03-11T22:45:07.728Z,5.01
2023-03-11T22:48:31.647Z,5.27
2023-03-11T22:51:55.513Z,4.80
2023-03-11T22:55:21.987Z,4.80
2023-03-11T22:58:44.378Z,5.00
2023-03-11T23:02:06.014Z,5.26
2023-03-11T23:05:28.003Z,5.38
2023-03-11T23:08:49.689Z,4.85
2023-03-11T23:12:11.403Z,5.06
2023-03-11T23:15:37.604Z,4.66
2023-03-11T23:19:01.123Z,4.58
2023-03-11T23:22:22.978Z,4.61
2023-03-11T23:25:44.646Z,4.49
2023-03-11T23:29:08.622Z,4.82
2023-03-11T23:32:30.325Z,4.31
2023-03-11T23:35:51.977Z,4.08
2023-03-11T23:39:13.700Z,4.30
2023-03-11T23:42:35.667Z,4.41
2023-03-11T23:46:00.264Z,4.45
2023-03-11T23:49:21.989Z,4.51
2023-03-11T23:52:43.585Z,4.75
2023-03-11T23:56:19.340Z,5.03
2023-03-11T23:59:40.940Z,4.64
